sensor_id;sensor_type;location;lat;lon;timestamp;temperature;humidity
33139;DHT22;19501;50.948;5.316;2023-01-26T00:00:41;-0.40;99.90
33139;DHT22;19501;50.948;5.316;2023-01-26T00:03:06;-0.40;99.90
33139;DHT22;19501;50.948;5.316;2023-01-26T00:05:35;-0.30;99.90
33139;DHT22;19501;50.948;5.316;2023-01-26T00:08:00;-0.10;99.90
33139;DHT22;19501;50.948;5.316;2023-01-26T00:10:26;0.10;99.90
33139;DHT22;19501;50.948;5.316;2023-01-26T00:12:52;0.10;99.90
33139;DHT22;19501;50.948;5.316;2023-01-26T00:15:17;0.10;99.90
33139;DHT22;19501;50.948;5.316;2023-01-26T00:17:43;0.20;99.90
33139;DHT22;19501;50.948;5.316;2023-01-26T00:20:09;0.00;99.90
33139;DHT22;19501;50.948;5.316;2023-01-26T00:22:34;-0.30;99.90
33139;DHT22;19501;50.948;5.316;2023-01-26T00:25:00;-0.30;99.90
33139;DHT22;19501;50.948;5.316;2023-01-26T00:27:26;-0.40;99.90
33139;DHT22;19501;50.948;5.316;2023-01-26T00:29:52;-0.30;99.90
33139;DHT22;19501;50.948;5.316;2023-01-26T00:32:17;-0.40;99.90
33139;DHT22;19501;50.948;5.316;2023-01-26T00:34:43;-0.30;99.90
33139;DHT22;19501;50.948;5.316;2023-01-26T00:37:09;-0.10;99.90
33139;DHT22;19501;50.948;5.316;2023-01-26T00:39:34;-0.20;99.90
33139;DHT22;19501;50.948;5.316;2023-01-26T00:42:00;-0.10;99.90
33139;DHT22;19501;50.948;5.316;2023-01-26T00:44:35;-0.30;99.90
33139;DHT22;19501;50.948;5.316;2023-01-26T00:47:00;-0.20;99.90
33139;DHT22;19501;50.948;5.316;2023-01-26T00:49:26;-0.20;99.90
33139;DHT22;19501;50.948;5.316;2023-01-26T00:51:52;-0.40;99.90
33139;DHT22;19501;50.948;5.316;2023-01-26T00:54:20;-0.40;99.90
33139;DHT22;19501;50.948;5.316;2023-01-26T00:56:45;-0.40;99.90
33139;DHT22;19501;50.948;5.316;2023-01-26T00:59:11;-0.40;99.90
33139;DHT22;19501;50.948;5.316;2023-01-26T01:01:36;-0.30;99.90
33139;DHT22;19501;50.948;5.316;2023-01-26T01:04:02;0.00;99.90
33139;DHT22;19501;50.948;5.316;2023-01-26T01:06:28;-0.10;99.90
33139;DHT22;19501;50.948;5.316;2023-01-26T01:08:53;0.00;99.90
33139;DHT22;19501;50.948;5.316;2023-01-26T01:11:21;-0.10;99.90
33139;DHT22;19501;50.948;5.316;2023-01-26T01:13:47;-0.10;99.90
33139;DHT22;19501;50.948;5.316;2023-01-26T01:16:13;0.10;99.90
33139;DHT22;19501;50.948;5.316;2023-01-26T01:18:38;0.10;99.90
33139;DHT22;19501;50.948;5.316;2023-01-26T01:21:05;0.10;99.90
33139;DHT22;19501;50.948;5.316;2023-01-26T01:23:30;0.20;99.90
33139;DHT22;19501;50.948;5.316;2023-01-26T01:25:57;0.20;99.90
33139;DHT22;19501;50.948;5.316;2023-01-26T01:28:23;0.30;99.90
33139;DHT22;19501;50.948;5.316;2023-01-26T01:30:49;0.30;99.90
33139;DHT22;19501;50.948;5.316;2023-01-26T01:33:15;0.30;99.90
33139;DHT22;19501;50.948;5.316;2023-01-26T01:35:41;0.20;99.90
33139;DHT22;19501;50.948;5.316;2023-01-26T01:38:06;0.20;99.90
33139;DHT22;19501;50.948;5.316;2023-01-26T01:40:32;0.10;99.90
33139;DHT22;19501;50.948;5.316;2023-01-26T01:42:57;0.10;99.90
33139;DHT22;19501;50.948;5.316;2023-01-26T01:47:56;0.10;99.90
33139;DHT22;19501;50.948;5.316;2023-01-26T01:50:23;0.10;99.90
33139;DHT22;19501;50.948;5.316;2023-01-26T01:52:49;0.10;99.90
33139;DHT22;19501;50.948;5.316;2023-01-26T01:55:15;0.20;99.90
33139;DHT22;19501;50.948;5.316;2023-01-26T01:57:48;0.30;99.90
33139;DHT22;19501;50.948;5.316;2023-01-26T02:00:19;0.30;99.90
33139;DHT22;19501;50.948;5.316;2023-01-26T02:02:45;0.30;99.90
33139;DHT22;19501;50.948;5.316;2023-01-26T02:05:34;0.30;99.90
33139;DHT22;19501;50.948;5.316;2023-01-26T02:08:04;0.30;99.90
33139;DHT22;19501;50.948;5.316;2023-01-26T02:10:31;0.40;99.90
33139;DHT22;19501;50.948;5.316;2023-01-26T02:12:57;0.40;99.90
33139;DHT22;19501;50.948;5.316;2023-01-26T02:15:25;0.40;99.90
33139;DHT22;19501;50.948;5.316;2023-01-26T02:17:51;0.40;99.90
33139;DHT22;19501;50.948;5.316;2023-01-26T02:27:59;0.20;99.90
33139;DHT22;19501;50.948;5.316;2023-01-26T02:30:25;0.30;99.90
33139;DHT22;19501;50.948;5.316;2023-01-26T02:32:51;0.20;99.90
33139;DHT22;19501;50.948;5.316;2023-01-26T02:35:17;0.20;99.90
33139;DHT22;19501;50.948;5.316;2023-01-26T02:37:43;0.40;99.90
33139;DHT22;19501;50.948;5.316;2023-01-26T02:42:37;0.60;99.90
33139;DHT22;19501;50.948;5.316;2023-01-26T02:45:03;0.60;99.90
33139;DHT22;19501;50.948;5.316;2023-01-26T02:47:30;0.70;99.90
33139;DHT22;19501;50.948;5.316;2023-01-26T02:49:56;0.60;99.90
33139;DHT22;19501;50.948;5.316;2023-01-26T02:52:24;0.40;99.90
33139;DHT22;19501;50.948;5.316;2023-01-26T02:54:51;0.40;99.90
33139;DHT22;19501;50.948;5.316;2023-01-26T02:57:35;0.40;99.90
33139;DHT22;19501;50.948;5.316;2023-01-26T03:00:01;0.60;99.90
33139;DHT22;19501;50.948;5.316;2023-01-26T03:02:27;0.60;99.90
33139;DHT22;19501;50.948;5.316;2023-01-26T03:04:56;0.60;99.90
33139;DHT22;19501;50.948;5.316;2023-01-26T03:07:22;0.60;99.90
33139;DHT22;19501;50.948;5.316;2023-01-26T03:09:48;0.60;99.90
33139;DHT22;19501;50.948;5.316;2023-01-26T03:12:13;0.60;99.90
33139;DHT22;19501;50.948;5.316;2023-01-26T03:14:40;0.60;99.90
33139;DHT22;19501;50.948;5.316;2023-01-26T03:17:06;0.70;99.90
33139;DHT22;19501;50.948;5.316;2023-01-26T03:19:31;0.60;99.90
33139;DHT22;19501;50.948;5.316;2023-01-26T03:22:15;0.30;99.90
33139;DHT22;19501;50.948;5.316;2023-01-26T03:24:59;0.30;99.90
33139;DHT22;19501;50.948;5.316;2023-01-26T03:27:47;0.30;99.90
33139;DHT22;19501;50.948;5.316;2023-01-26T03:30:17;0.40;99.90
33139;DHT22;19501;50.948;5.316;2023-01-26T03:32:43;0.40;99.90
33139;DHT22;19501;50.948;5.316;2023-01-26T03:35:09;0.40;99.90
33139;DHT22;19501;50.948;5.316;2023-01-26T03:37:42;0.50;99.90
33139;DHT22;19501;50.948;5.316;2023-01-26T03:40:11;0.40;99.90
33139;DHT22;19501;50.948;5.316;2023-01-26T03:42:55;0.50;99.90
33139;DHT22;19501;50.948;5.316;2023-01-26T03:45:39;0.50;99.90
33139;DHT22;19501;50.948;5.316;2023-01-26T03:48:24;0.50;99.90
33139;DHT22;19501;50.948;5.316;2023-01-26T03:51:08;0.50;99.90
33139;DHT22;19501;50.948;5.316;2023-01-26T03:53:52;0.50;99.90
33139;DHT22;19501;50.948;5.316;2023-01-26T03:56:36;0.60;99.90
33139;DHT22;19501;50.948;5.316;2023-01-26T03:59:03;0.50;99.90
33139;DHT22;19501;50.948;5.316;2023-01-26T04:01:38;0.60;99.90
33139;DHT22;19501;50.948;5.316;2023-01-26T04:04:05;0.50;99.90
33139;DHT22;19501;50.948;5.316;2023-01-26T04:06:50;0.60;99.90
33139;DHT22;19501;50.948;5.316;2023-01-26T04:09:34;0.50;99.90
33139;DHT22;19501;50.948;5.316;2023-01-26T04:12:01;0.50;99.90
33139;DHT22;19501;50.948;5.316;2023-01-26T04:14:27;0.70;99.90
33139;DHT22;19501;50.948;5.316;2023-01-26T04:17:11;0.70;99.90
33139;DHT22;19501;50.948;5.316;2023-01-26T04:19:55;0.70;99.90
33139;DHT22;19501;50.948;5.316;2023-01-26T04:22:39;0.80;99.90
33139;DHT22;19501;50.948;5.316;2023-01-26T04:25:10;0.60;99.90
33139;DHT22;19501;50.948;5.316;2023-01-26T04:27:36;0.50;99.90
33139;DHT22;19501;50.948;5.316;2023-01-26T04:30:02;0.30;99.90
33139;DHT22;19501;50.948;5.316;2023-01-26T04:32:28;0.40;99.90
33139;DHT22;19501;50.948;5.316;2023-01-26T04:34:54;0.40;99.90
33139;DHT22;19501;50.948;5.316;2023-01-26T04:37:20;0.50;99.90
33139;DHT22;19501;50.948;5.316;2023-01-26T04:39:46;0.60;99.90
33139;DHT22;19501;50.948;5.316;2023-01-26T04:42:11;0.60;99.90
33139;DHT22;19501;50.948;5.316;2023-01-26T04:44:37;0.60;99.90
33139;DHT22;19501;50.948;5.316;2023-01-26T04:47:03;0.70;99.90
33139;DHT22;19501;50.948;5.316;2023-01-26T04:49:28;0.60;99.90
33139;DHT22;19501;50.948;5.316;2023-01-26T04:51:54;0.40;99.90
33139;DHT22;19501;50.948;5.316;2023-01-26T04:54:21;0.30;99.90
33139;DHT22;19501;50.948;5.316;2023-01-26T04:56:46;0.20;99.90
33139;DHT22;19501;50.948;5.316;2023-01-26T04:59:12;0.20;99.90
33139;DHT22;19501;50.948;5.316;2023-01-26T05:01:38;0.40;99.90
33139;DHT22;19501;50.948;5.316;2023-01-26T05:04:04;0.50;99.90
33139;DHT22;19501;50.948;5.316;2023-01-26T05:06:31;0.50;99.90
33139;DHT22;19501;50.948;5.316;2023-01-26T05:08:57;0.40;99.90
33139;DHT22;19501;50.948;5.316;2023-01-26T05:11:23;0.50;99.90
33139;DHT22;19501;50.948;5.316;2023-01-26T05:13:48;0.60;99.90
33139;DHT22;19501;50.948;5.316;2023-01-26T05:16:14;0.70;99.90
33139;DHT22;19501;50.948;5.316;2023-01-26T05:18:40;0.80;99.90
33139;DHT22;19501;50.948;5.316;2023-01-26T05:21:06;0.90;99.90
33139;DHT22;19501;50.948;5.316;2023-01-26T05:23:32;0.90;99.90
33139;DHT22;19501;50.948;5.316;2023-01-26T05:25:58;1.10;99.90
33139;DHT22;19501;50.948;5.316;2023-01-26T05:28:23;0.90;99.90
33139;DHT22;19501;50.948;5.316;2023-01-26T05:30:49;0.80;99.90
33139;DHT22;19501;50.948;5.316;2023-01-26T05:33:15;0.70;99.90
33139;DHT22;19501;50.948;5.316;2023-01-26T05:35:41;0.60;99.90
33139;DHT22;19501;50.948;5.316;2023-01-26T05:38:07;0.60;99.90
33139;DHT22;19501;50.948;5.316;2023-01-26T05:40:32;0.70;99.90
33139;DHT22;19501;50.948;5.316;2023-01-26T05:42:58;0.90;99.90
33139;DHT22;19501;50.948;5.316;2023-01-26T05:45:24;1.00;99.90
33139;DHT22;19501;50.948;5.316;2023-01-26T05:47:50;1.10;99.90
33139;DHT22;19501;50.948;5.316;2023-01-26T05:50:16;1.20;99.90
33139;DHT22;19501;50.948;5.316;2023-01-26T05:52:42;1.10;99.90
33139;DHT22;19501;50.948;5.316;2023-01-26T05:55:10;1.10;99.90
33139;DHT22;19501;50.948;5.316;2023-01-26T05:57:36;1.10;99.90
33139;DHT22;19501;50.948;5.316;2023-01-26T06:00:03;1.20;99.90
33139;DHT22;19501;50.948;5.316;2023-01-26T06:02:29;1.20;99.90
33139;DHT22;19501;50.948;5.316;2023-01-26T06:04:54;1.20;99.90
33139;DHT22;19501;50.948;5.316;2023-01-26T06:07:20;1.00;99.90
33139;DHT22;19501;50.948;5.316;2023-01-26T06:09:45;1.10;99.90
33139;DHT22;19501;50.948;5.316;2023-01-26T06:12:13;1.10;99.90
33139;DHT22;19501;50.948;5.316;2023-01-26T06:14:39;1.20;99.90
33139;DHT22;19501;50.948;5.316;2023-01-26T06:17:04;1.00;99.90
33139;DHT22;19501;50.948;5.316;2023-01-26T06:19:30;1.00;99.90
33139;DHT22;19501;50.948;5.316;2023-01-26T06:21:56;0.90;99.90
33139;DHT22;19501;50.948;5.316;2023-01-26T06:24:21;0.80;99.90
33139;DHT22;19501;50.948;5.316;2023-01-26T06:26:49;0.80;99.90
33139;DHT22;19501;50.948;5.316;2023-01-26T06:29:15;1.00;99.90
33139;DHT22;19501;50.948;5.316;2023-01-26T06:31:40;1.20;99.90
33139;DHT22;19501;50.948;5.316;2023-01-26T06:34:06;1.20;99.90
33139;DHT22;19501;50.948;5.316;2023-01-26T06:36:33;1.10;99.90
33139;DHT22;19501;50.948;5.316;2023-01-26T06:38:59;1.10;99.90
33139;DHT22;19501;50.948;5.316;2023-01-26T06:41:24;1.10;99.90
33139;DHT22;19501;50.948;5.316;2023-01-26T06:43:50;1.10;99.90
33139;DHT22;19501;50.948;5.316;2023-01-26T06:46:16;1.10;99.90
33139;DHT22;19501;50.948;5.316;2023-01-26T06:48:42;1.10;99.90
33139;DHT22;19501;50.948;5.316;2023-01-26T06:53:52;1.20;99.90
33139;DHT22;19501;50.948;5.316;2023-01-26T06:56:18;1.20;99.90
33139;DHT22;19501;50.948;5.316;2023-01-26T06:58:44;1.20;99.90
33139;DHT22;19501;50.948;5.316;2023-01-26T07:01:14;1.30;99.90
33139;DHT22;19501;50.948;5.316;2023-01-26T07:03:40;1.40;99.90
33139;DHT22;19501;50.948;5.316;2023-01-26T07:06:06;1.40;99.90
33139;DHT22;19501;50.948;5.316;2023-01-26T07:08:35;1.40;99.90
33139;DHT22;19501;50.948;5.316;2023-01-26T07:11:00;1.20;99.90
33139;DHT22;19501;50.948;5.316;2023-01-26T07:13:26;0.90;99.90
33139;DHT22;19501;50.948;5.316;2023-01-26T07:15:58;1.00;99.90
33139;DHT22;19501;50.948;5.316;2023-01-26T07:18:24;0.90;99.90
33139;DHT22;19501;50.948;5.316;2023-01-26T07:20:49;0.90;99.90
33139;DHT22;19501;50.948;5.316;2023-01-26T07:23:15;0.80;99.90
33139;DHT22;19501;50.948;5.316;2023-01-26T07:25:42;0.90;99.90
33139;DHT22;19501;50.948;5.316;2023-01-26T07:28:07;1.00;99.90
33139;DHT22;19501;50.948;5.316;2023-01-26T07:30:35;1.10;99.90
33139;DHT22;19501;50.948;5.316;2023-01-26T07:33:01;1.30;99.90
33139;DHT22;19501;50.948;5.316;2023-01-26T07:35:29;1.30;99.90
33139;DHT22;19501;50.948;5.316;2023-01-26T07:37:54;1.30;99.90
33139;DHT22;19501;50.948;5.316;2023-01-26T07:40:22;1.30;99.90
33139;DHT22;19501;50.948;5.316;2023-01-26T07:42:48;1.40;99.90
33139;DHT22;19501;50.948;5.316;2023-01-26T07:45:14;1.50;99.90
33139;DHT22;19501;50.948;5.316;2023-01-26T07:47:42;1.60;99.90
33139;DHT22;19501;50.948;5.316;2023-01-26T07:50:08;1.40;99.90
33139;DHT22;19501;50.948;5.316;2023-01-26T07:52:35;1.40;99.90
33139;DHT22;19501;50.948;5.316;2023-01-26T07:55:00;1.50;99.90
33139;DHT22;19501;50.948;5.316;2023-01-26T07:57:26;1.40;99.90
33139;DHT22;19501;50.948;5.316;2023-01-26T07:59:53;1.40;99.90
33139;DHT22;19501;50.948;5.316;2023-01-26T08:02:18;1.30;99.90
33139;DHT22;19501;50.948;5.316;2023-01-26T08:04:44;1.30;99.90
33139;DHT22;19501;50.948;5.316;2023-01-26T08:07:10;1.20;99.90
33139;DHT22;19501;50.948;5.316;2023-01-26T08:09:36;1.30;99.90
33139;DHT22;19501;50.948;5.316;2023-01-26T08:12:02;1.30;99.90
33139;DHT22;19501;50.948;5.316;2023-01-26T08:14:28;1.40;99.90
33139;DHT22;19501;50.948;5.316;2023-01-26T08:16:54;1.30;99.90
33139;DHT22;19501;50.948;5.316;2023-01-26T08:19:20;1.30;99.90
33139;DHT22;19501;50.948;5.316;2023-01-26T08:21:46;1.30;99.90
33139;DHT22;19501;50.948;5.316;2023-01-26T08:24:11;1.30;99.90
33139;DHT22;19501;50.948;5.316;2023-01-26T08:26:37;1.50;99.90
33139;DHT22;19501;50.948;5.316;2023-01-26T08:29:03;1.40;99.90
33139;DHT22;19501;50.948;5.316;2023-01-26T08:31:29;1.50;99.90
33139;DHT22;19501;50.948;5.316;2023-01-26T08:33:54;1.60;99.90
33139;DHT22;19501;50.948;5.316;2023-01-26T08:36:21;1.60;99.90
33139;DHT22;19501;50.948;5.316;2023-01-26T08:38:46;1.60;99.90
33139;DHT22;19501;50.948;5.316;2023-01-26T08:41:12;1.50;99.90
33139;DHT22;19501;50.948;5.316;2023-01-26T08:43:38;1.40;99.90
33139;DHT22;19501;50.948;5.316;2023-01-26T08:46:04;1.50;99.90
33139;DHT22;19501;50.948;5.316;2023-01-26T08:48:33;1.50;99.90
33139;DHT22;19501;50.948;5.316;2023-01-26T08:51:00;1.70;99.90
33139;DHT22;19501;50.948;5.316;2023-01-26T08:53:28;1.60;99.90
33139;DHT22;19501;50.948;5.316;2023-01-26T08:55:54;1.50;99.90
33139;DHT22;19501;50.948;5.316;2023-01-26T08:58:19;1.60;99.90
33139;DHT22;19501;50.948;5.316;2023-01-26T09:00:45;1.70;99.90
33139;DHT22;19501;50.948;5.316;2023-01-26T09:03:11;1.60;99.90
33139;DHT22;19501;50.948;5.316;2023-01-26T09:05:37;1.60;99.90
33139;DHT22;19501;50.948;5.316;2023-01-26T09:08:04;1.80;99.90
33139;DHT22;19501;50.948;5.316;2023-01-26T09:10:29;1.90;99.90
33139;DHT22;19501;50.948;5.316;2023-01-26T09:12:58;1.80;99.90
33139;DHT22;19501;50.948;5.316;2023-01-26T09:15:24;1.70;99.90
33139;DHT22;19501;50.948;5.316;2023-01-26T09:17:50;1.80;99.90
33139;DHT22;19501;50.948;5.316;2023-01-26T09:20:18;1.80;99.90
33139;DHT22;19501;50.948;5.316;2023-01-26T09:22:44;1.90;99.90
33139;DHT22;19501;50.948;5.316;2023-01-26T09:25:09;2.00;99.90
33139;DHT22;19501;50.948;5.316;2023-01-26T09:27:35;2.00;99.90
33139;DHT22;19501;50.948;5.316;2023-01-26T09:30:02;2.00;99.90
33139;DHT22;19501;50.948;5.316;2023-01-26T09:32:28;2.00;99.90
33139;DHT22;19501;50.948;5.316;2023-01-26T09:34:54;2.10;99.90
33139;DHT22;19501;50.948;5.316;2023-01-26T09:37:20;2.10;99.90
33139;DHT22;19501;50.948;5.316;2023-01-26T09:39:45;2.00;99.90
33139;DHT22;19501;50.948;5.316;2023-01-26T09:47:34;1.60;99.90
33139;DHT22;19501;50.948;5.316;2023-01-26T09:50:02;1.60;99.90
33139;DHT22;19501;50.948;5.316;2023-01-26T09:52:30;1.60;99.90
33139;DHT22;19501;50.948;5.316;2023-01-26T09:54:58;1.70;99.90
33139;DHT22;19501;50.948;5.316;2023-01-26T09:57:32;1.90;99.90
33139;DHT22;19501;50.948;5.316;2023-01-26T10:00:07;2.00;99.90
33139;DHT22;19501;50.948;5.316;2023-01-26T10:02:38;2.00;99.90
33139;DHT22;19501;50.948;5.316;2023-01-26T10:05:09;2.10;99.90
33139;DHT22;19501;50.948;5.316;2023-01-26T10:07:37;2.30;99.90
33139;DHT22;19501;50.948;5.316;2023-01-26T10:10:03;2.50;99.90
33139;DHT22;19501;50.948;5.316;2023-01-26T10:12:30;2.20;99.90
33139;DHT22;19501;50.948;5.316;2023-01-26T10:15:00;1.90;99.90
33139;DHT22;19501;50.948;5.316;2023-01-26T10:19:59;1.90;99.90
33139;DHT22;19501;50.948;5.316;2023-01-26T10:22:29;2.00;99.90
33139;DHT22;19501;50.948;5.316;2023-01-26T10:24:56;1.90;99.90
33139;DHT22;19501;50.948;5.316;2023-01-26T10:27:23;1.90;99.90
33139;DHT22;19501;50.948;5.316;2023-01-26T10:29:49;2.10;99.90
33139;DHT22;19501;50.948;5.316;2023-01-26T10:32:15;2.20;99.90
33139;DHT22;19501;50.948;5.316;2023-01-26T10:34:42;2.30;99.90
33139;DHT22;19501;50.948;5.316;2023-01-26T10:37:22;2.30;99.90
33139;DHT22;19501;50.948;5.316;2023-01-26T10:39:55;2.40;99.90
33139;DHT22;19501;50.948;5.316;2023-01-26T10:42:21;2.30;99.90
33139;DHT22;19501;50.948;5.316;2023-01-26T10:44:48;2.30;99.90
33139;DHT22;19501;50.948;5.316;2023-01-26T10:47:15;2.30;99.90
33139;DHT22;19501;50.948;5.316;2023-01-26T10:49:41;2.10;99.90
33139;DHT22;19501;50.948;5.316;2023-01-26T10:52:27;2.30;99.90
33139;DHT22;19501;50.948;5.316;2023-01-26T10:55:18;2.60;99.90
33139;DHT22;19501;50.948;5.316;2023-01-26T10:57:39;2.70;99.90
33139;DHT22;19501;50.948;5.316;2023-01-26T11:00:09;2.50;99.90
33139;DHT22;19501;50.948;5.316;2023-01-26T11:02:48;2.60;99.90
33139;DHT22;19501;50.948;5.316;2023-01-26T11:05:17;2.40;99.90
33139;DHT22;19501;50.948;5.316;2023-01-26T11:07:45;2.40;99.90
33139;DHT22;19501;50.948;5.316;2023-01-26T11:12:43;2.30;99.90
33139;DHT22;19501;50.948;5.316;2023-01-26T11:15:19;2.30;99.90
33139;DHT22;19501;50.948;5.316;2023-01-26T11:23:09;2.30;99.90
33139;DHT22;19501;50.948;5.316;2023-01-26T11:38:29;2.30;99.90
33139;DHT22;19501;50.948;5.316;2023-01-26T11:43:46;2.30;99.90
33139;DHT22;19501;50.948;5.316;2023-01-26T11:51:43;2.30;99.90
33139;DHT22;19501;50.948;5.316;2023-01-26T11:56:49;2.40;99.90
33139;DHT22;19501;50.948;5.316;2023-01-26T11:59:20;2.40;99.90
33139;DHT22;19501;50.948;5.316;2023-01-26T12:01:50;2.50;99.90
33139;DHT22;19501;50.948;5.316;2023-01-26T12:04:18;2.40;99.90
33139;DHT22;19501;50.948;5.316;2023-01-26T12:06:45;2.60;99.90
33139;DHT22;19501;50.948;5.316;2023-01-26T12:09:17;2.50;99.90
33139;DHT22;19501;50.948;5.316;2023-01-26T12:11:47;2.40;99.90
33139;DHT22;19501;50.948;5.316;2023-01-26T12:14:24;2.50;99.90
33139;DHT22;19501;50.948;5.316;2023-01-26T12:19:47;2.50;99.90
33139;DHT22;19501;50.948;5.316;2023-01-26T12:22:19;2.50;99.90
33139;DHT22;19501;50.948;5.316;2023-01-26T12:24:51;2.70;99.90
33139;DHT22;19501;50.948;5.316;2023-01-26T12:27:27;2.60;99.90
33139;DHT22;19501;50.948;5.316;2023-01-26T12:30:20;2.70;99.90
33139;DHT22;19501;50.948;5.316;2023-01-26T12:32:40;2.60;99.90
33139;DHT22;19501;50.948;5.316;2023-01-26T12:35:09;2.70;99.90
33139;DHT22;19501;50.948;5.316;2023-01-26T12:37:46;2.70;99.90
33139;DHT22;19501;50.948;5.316;2023-01-26T12:40:38;2.70;99.90
33139;DHT22;19501;50.948;5.316;2023-01-26T12:45:31;2.60;99.90
33139;DHT22;19501;50.948;5.316;2023-01-26T12:48:19;2.80;99.90
33139;DHT22;19501;50.948;5.316;2023-01-26T12:50:48;2.80;99.90
33139;DHT22;19501;50.948;5.316;2023-01-26T12:53:21;2.80;99.90
33139;DHT22;19501;50.948;5.316;2023-01-26T12:55:50;2.70;99.90
33139;DHT22;19501;50.948;5.316;2023-01-26T12:58:25;2.70;99.90
33139;DHT22;19501;50.948;5.316;2023-01-26T13:03:30;2.70;99.90
33139;DHT22;19501;50.948;5.316;2023-01-26T13:05:58;2.70;99.90
33139;DHT22;19501;50.948;5.316;2023-01-26T13:08:38;2.80;99.90
33139;DHT22;19501;50.948;5.316;2023-01-26T13:11:05;2.80;99.90
33139;DHT22;19501;50.948;5.316;2023-01-26T13:13:32;3.00;99.90
33139;DHT22;19501;50.948;5.316;2023-01-26T13:18:49;3.10;99.90
33139;DHT22;19501;50.948;5.316;2023-01-26T13:21:30;3.20;99.90
33139;DHT22;19501;50.948;5.316;2023-01-26T13:26:40;3.30;99.90
33139;DHT22;19501;50.948;5.316;2023-01-26T13:31:54;3.50;99.90
33139;DHT22;19501;50.948;5.316;2023-01-26T13:34:21;3.60;99.90
33139;DHT22;19501;50.948;5.316;2023-01-26T13:36:49;3.70;99.90
33139;DHT22;19501;50.948;5.316;2023-01-26T13:39:17;3.80;99.90
33139;DHT22;19501;50.948;5.316;2023-01-26T13:41:49;3.80;99.90
33139;DHT22;19501;50.948;5.316;2023-01-26T13:44:33;3.70;99.90
33139;DHT22;19501;50.948;5.316;2023-01-26T13:47:01;3.80;99.90
33139;DHT22;19501;50.948;5.316;2023-01-26T13:49:39;3.60;99.90
33139;DHT22;19501;50.948;5.316;2023-01-26T13:52:16;3.90;99.90
33139;DHT22;19501;50.948;5.316;2023-01-26T13:54:43;3.80;99.90
33139;DHT22;19501;50.948;5.316;2023-01-26T13:57:09;3.90;99.90
33139;DHT22;19501;50.948;5.316;2023-01-26T13:59:47;3.90;99.90
33139;DHT22;19501;50.948;5.316;2023-01-26T14:02:26;4.00;99.90
33139;DHT22;19501;50.948;5.316;2023-01-26T14:04:53;4.10;99.90
33139;DHT22;19501;50.948;5.316;2023-01-26T14:07:22;4.20;99.90
33139;DHT22;19501;50.948;5.316;2023-01-26T14:09:50;4.30;99.90
33139;DHT22;19501;50.948;5.316;2023-01-26T14:12:24;4.40;99.90
33139;DHT22;19501;50.948;5.316;2023-01-26T14:14:55;4.50;99.90
33139;DHT22;19501;50.948;5.316;2023-01-26T14:17:31;4.60;99.90
33139;DHT22;19501;50.948;5.316;2023-01-26T14:19:58;4.60;99.90
33139;DHT22;19501;50.948;5.316;2023-01-26T14:22:25;4.50;99.90
33139;DHT22;19501;50.948;5.316;2023-01-26T14:24:51;4.60;99.90
33139;DHT22;19501;50.948;5.316;2023-01-26T14:29:51;4.60;99.90
33139;DHT22;19501;50.948;5.316;2023-01-26T14:32:16;4.60;99.90
33139;DHT22;19501;50.948;5.316;2023-01-26T14:34:52;4.60;99.90
33139;DHT22;19501;50.948;5.316;2023-01-26T14:37:19;4.60;99.90
33139;DHT22;19501;50.948;5.316;2023-01-26T14:39:44;4.70;99.90
33139;DHT22;19501;50.948;5.316;2023-01-26T14:42:15;4.70;99.90
33139;DHT22;19501;50.948;5.316;2023-01-26T14:44:42;4.60;99.90
33139;DHT22;19501;50.948;5.316;2023-01-26T14:52:15;4.80;99.90
33139;DHT22;19501;50.948;5.316;2023-01-26T14:54:41;4.80;99.90
33139;DHT22;19501;50.948;5.316;2023-01-26T14:57:10;4.90;99.90
33139;DHT22;19501;50.948;5.316;2023-01-26T14:59:40;4.90;99.90
33139;DHT22;19501;50.948;5.316;2023-01-26T15:02:14;5.00;99.90
33139;DHT22;19501;50.948;5.316;2023-01-26T15:04:39;5.00;99.90
33139;DHT22;19501;50.948;5.316;2023-01-26T15:07:22;5.20;99.90
33139;DHT22;19501;50.948;5.316;2023-01-26T15:09:55;5.30;99.90
33139;DHT22;19501;50.948;5.316;2023-01-26T15:12:20;5.20;99.90
33139;DHT22;19501;50.948;5.316;2023-01-26T15:14:56;5.10;99.90
33139;DHT22;19501;50.948;5.316;2023-01-26T15:17:39;5.00;99.90
33139;DHT22;19501;50.948;5.316;2023-01-26T15:22:40;5.00;99.90
33139;DHT22;19501;50.948;5.316;2023-01-26T15:27:52;5.10;99.90
33139;DHT22;19501;50.948;5.316;2023-01-26T15:30:20;5.20;99.90
33139;DHT22;19501;50.948;5.316;2023-01-26T15:32:49;5.10;99.90
33139;DHT22;19501;50.948;5.316;2023-01-26T15:37:47;4.80;99.90
33139;DHT22;19501;50.948;5.316;2023-01-26T15:40:14;4.90;99.90
33139;DHT22;19501;50.948;5.316;2023-01-26T15:42:39;5.00;99.90
33139;DHT22;19501;50.948;5.316;2023-01-26T15:45:26;5.10;99.90
33139;DHT22;19501;50.948;5.316;2023-01-26T15:47:51;5.20;99.90
33139;DHT22;19501;50.948;5.316;2023-01-26T15:50:17;5.20;99.90
33139;DHT22;19501;50.948;5.316;2023-01-26T15:52:43;5.20;99.90
33139;DHT22;19501;50.948;5.316;2023-01-26T15:55:13;5.30;99.90
33139;DHT22;19501;50.948;5.316;2023-01-26T15:57:42;5.40;99.90
33139;DHT22;19501;50.948;5.316;2023-01-26T16:00:11;5.40;99.90
33139;DHT22;19501;50.948;5.316;2023-01-26T16:02:37;5.30;99.90
33139;DHT22;19501;50.948;5.316;2023-01-26T16:05:03;5.30;99.90
33139;DHT22;19501;50.948;5.316;2023-01-26T16:07:29;5.20;99.90
33139;DHT22;19501;50.948;5.316;2023-01-26T16:09:55;5.20;99.90
33139;DHT22;19501;50.948;5.316;2023-01-26T16:12:21;5.30;99.90
33139;DHT22;19501;50.948;5.316;2023-01-26T16:14:47;5.20;99.90
33139;DHT22;19501;50.948;5.316;2023-01-26T16:17:12;5.20;99.90
33139;DHT22;19501;50.948;5.316;2023-01-26T16:19:39;5.00;99.90
33139;DHT22;19501;50.948;5.316;2023-01-26T16:22:05;4.80;99.90
33139;DHT22;19501;50.948;5.316;2023-01-26T16:24:30;4.60;99.90
33139;DHT22;19501;50.948;5.316;2023-01-26T16:26:56;4.60;99.90
33139;DHT22;19501;50.948;5.316;2023-01-26T16:29:21;4.50;99.90
33139;DHT22;19501;50.948;5.316;2023-01-26T16:31:47;4.50;99.90
33139;DHT22;19501;50.948;5.316;2023-01-26T16:34:12;4.60;99.90
33139;DHT22;19501;50.948;5.316;2023-01-26T16:36:38;4.60;99.90
33139;DHT22;19501;50.948;5.316;2023-01-26T16:39:04;4.70;99.90
33139;DHT22;19501;50.948;5.316;2023-01-26T16:41:31;4.70;99.90
33139;DHT22;19501;50.948;5.316;2023-01-26T16:43:57;4.70;99.90
33139;DHT22;19501;50.948;5.316;2023-01-26T16:46:24;4.60;99.90
33139;DHT22;19501;50.948;5.316;2023-01-26T16:48:50;4.60;99.90
33139;DHT22;19501;50.948;5.316;2023-01-26T16:53:41;4.50;99.90
33139;DHT22;19501;50.948;5.316;2023-01-26T16:56:10;4.60;99.90
33139;DHT22;19501;50.948;5.316;2023-01-26T16:58:36;4.60;99.90
33139;DHT22;19501;50.948;5.316;2023-01-26T17:01:02;4.60;99.90
33139;DHT22;19501;50.948;5.316;2023-01-26T17:03:28;4.60;99.90
33139;DHT22;19501;50.948;5.316;2023-01-26T17:05:54;4.70;99.90
33139;DHT22;19501;50.948;5.316;2023-01-26T17:08:21;4.60;99.90
33139;DHT22;19501;50.948;5.316;2023-01-26T17:10:46;4.60;99.90
33139;DHT22;19501;50.948;5.316;2023-01-26T17:13:13;4.50;99.90
33139;DHT22;19501;50.948;5.316;2023-01-26T17:15:39;4.60;99.90
33139;DHT22;19501;50.948;5.316;2023-01-26T17:18:06;4.80;99.90
33139;DHT22;19501;50.948;5.316;2023-01-26T17:20:33;4.70;99.90